Airport View

Enter AWOS ICAO identifier for current METAR.

ex. KFNL

KVCV 031445Z 21005KT 10SM SKC A3006

3 Jul 2020 15:40

Frequency: 135.475

Phone: 760-246-3635

Other Area AWOS: KGXA - KSBD - KEDW - K9L2

TAF COR KEDW 021919Z 0220/0319 23010G15KT 9999 SKC QNH2988INS BECMG 0223/0224 25020G35KT 9999 SKC 520009 QNH2988INS BECMG 0303/0304 25012G20KT 9999 SKC 520009 QNH2994INS BECMG 0306/0307 VRB06KT 9999 SKC QNH2997INS TX33/0222Z TN08/0312Z LAST NO AMDS AFT 0220 NEXT 0413